Time;durP1;ratioP1;P1;durP2;ratioP2;P2;SDS_P1;SDS_P2;PMS_P1;PMS_P2;Temp;Humidity;BMP_temperature;BMP_pressure;BME280_temperature;BME280_humidity;BME280_pressure;Samples;Min_cycle;Max_cycle;Signal;HPM_P1;HPM_P2
2023/06/28 00:00:24;;;;;;;;;;;;;;;25.61;100.00;99158.00;5033510;28;19984;-90
2023/06/28 00:02:49;;;;;;;;;;;;;;;25.57;100.00;99161.44;5027327;28;19964;-89
2023/06/28 00:05:15;;;;;;;;;;;;;;;25.48;100.00;99158.31;5025002;28;19921;-89
2023/06/28 00:07:40;;;;;;;;;;;;;;;25.33;100.00;99170.81;5023671;28;19923;-89
2023/06/28 00:10:06;;;;;;;;;;;;;;;25.33;100.00;99160.78;5021897;28;19917;-89
2023/06/28 00:12:31;;;;;;;;;;;;;;;25.21;100.00;99157.41;5025115;28;20046;-90
2023/06/28 00:14:58;;;;;;;;;;;;;;;25.20;100.00;99161.97;5024050;28;19917;-89
2023/06/28 00:17:29;;;;;;;;;;;;;;;25.17;100.00;99157.06;5035755;28;20361;-90
2023/06/28 00:19:58;;;;;;;;;;;;;;;25.12;100.00;99153.47;5024523;28;19996;-92
2023/06/28 00:22:28;;;;;;;;;;;;;;;25.10;100.00;99152.88;5021612;28;19917;-89
2023/06/28 00:24:54;;;;;;;;;;;;;;;25.08;100.00;99153.16;5024699;28;19917;-90
2023/06/28 00:27:20;;;;;;;;;;;;;;;25.04;100.00;99156.56;5019972;28;20348;-89
2023/06/28 00:29:45;;;;;;;;;;;;;;;24.93;100.00;99160.16;5030927;28;19963;-89
2023/06/28 00:32:11;;;;;;;;;;;;;;;24.91;100.00;99157.72;5021470;28;20381;-92
2023/06/28 00:34:38;;;;;;;;;;;;;;;24.95;100.00;99163.44;5023938;28;19917;-89
2023/06/28 00:37:03;;;;;;;;;;;;;;;24.96;100.00;99165.09;5022511;28;19925;-91
2023/06/28 00:39:28;;;;;;;;;;;;;;;24.99;100.00;99169.97;5024034;28;19921;-91
2023/06/28 00:41:54;;;;;;;;;;;;;;;25.01;100.00;99170.56;5019844;28;20479;-89
2023/06/28 00:44:19;;;;;;;;;;;;;;;24.97;100.00;99178.34;5019326;28;19944;-91
2023/06/28 00:46:45;;;;;;;;;;;;;;;24.92;100.00;99201.75;5023875;28;19917;-89
2023/06/28 00:49:10;;;;;;;;;;;;;;;24.88;100.00;99231.91;5021796;28;20012;-90
2023/06/28 00:51:36;;;;;;;;;;;;;;;24.76;100.00;99209.53;5022997;28;19917;-89
2023/06/28 00:54:01;;;;;;;;;;;;;;;24.74;100.00;99203.53;5023125;28;19920;-90
2023/06/28 00:56:27;;;;;;;;;;;;;;;24.67;100.00;99224.47;5020239;28;19967;-87
2023/06/28 00:58:53;;;;;;;;;;;;;;;24.71;100.00;99222.91;5020922;28;19921;-86
2023/06/28 01:01:18;;;;;;;;;;;;;;;24.71;100.00;99214.81;5020685;28;19983;-88
2023/06/28 01:03:45;;;;;;;;;;;;;;;24.68;100.00;99214.50;5024862;28;20373;-88
2023/06/28 01:06:12;;;;;;;;;;;;;;;24.68;100.00;99207.19;5025375;28;19975;-88
2023/06/28 01:08:40;;;;;;;;;;;;;;;24.60;100.00;99215.72;5023409;28;19913;-87
2023/06/28 01:11:05;;;;;;;;;;;;;;;24.61;100.00;99205.75;5022380;28;19925;-89
2023/06/28 01:13:33;;;;;;;;;;;;;;;24.60;100.00;99212.19;5020779;28;19928;-89
2023/06/28 01:15:58;;;;;;;;;;;;;;;24.62;100.00;99212.78;5022999;28;19913;-90
2023/06/28 01:18:27;;;;;;;;;;;;;;;24.63;100.00;99201.72;5021311;28;19925;-89
2023/06/28 01:20:55;;;;;;;;;;;;;;;24.59;100.00;99203.28;5022633;28;19921;-88
2023/06/28 01:23:26;;;;;;;;;;;;;;;24.62;100.00;99213.59;5033564;28;19917;-89
2023/06/28 01:25:52;;;;;;;;;;;;;;;24.62;100.00;99219.00;5043577;28;19971;-89
2023/06/28 01:28:19;;;;;;;;;;;;;;;24.56;100.00;99219.97;5024405;28;19921;-92
2023/06/28 01:30:48;;;;;;;;;;;;;;;24.58;100.00;99225.91;5032715;28;19970;-91
2023/06/28 01:33:14;;;;;;;;;;;;;;;24.57;100.00;99232.34;5019814;28;19929;-93
2023/06/28 01:35:39;;;;;;;;;;;;;;;24.62;100.00;99245.16;5027319;28;19917;-91
2023/06/28 01:38:05;;;;;;;;;;;;;;;24.63;100.00;99242.19;5060104;28;19917;-91
2023/06/28 01:40:35;;;;;;;;;;;;;;;24.60;100.00;99231.91;5046614;28;20001;-93
2023/06/28 01:43:02;;;;;;;;;;;;;;;24.64;100.00;99243.84;5044887;28;19967;-93
2023/06/28 01:45:27;;;;;;;;;;;;;;;24.63;100.00;99235.97;5046308;28;19917;-92
2023/06/28 01:47:53;;;;;;;;;;;;;;;24.67;100.00;99246.06;5037085;28;19977;-92
2023/06/28 01:50:19;;;;;;;;;;;;;;;24.62;100.00;99255.94;5033741;28;19925;-93
2023/06/28 01:52:44;;;;;;;;;;;;;;;24.62;100.00;99266.72;5042415;28;19909;-93
2023/06/28 01:55:11;;;;;;;;;;;;;;;24.58;100.00;99250.19;5070168;28;19913;-93
2023/06/28 01:57:37;;;;;;;;;;;;;;;24.55;100.00;99250.69;5029127;28;19967;-89
2023/06/28 02:00:08;;;;;;;;;;;;;;;24.55;100.00;99250.69;5037780;28;20387;-89
2023/06/28 02:02:42;;;;;;;;;;;;;;;24.56;100.00;99248.81;5028938;28;19971;-89
2023/06/28 02:05:07;;;;;;;;;;;;;;;24.53;100.00;99242.00;5017989;28;19917;-88
2023/06/28 02:07:33;;;;;;;;;;;;;;;24.45;100.00;99234.28;5020507;28;19920;-90
2023/06/28 02:09:58;;;;;;;;;;;;;;;24.41;100.00;99238.53;5022833;28;19916;-93
2023/06/28 02:12:23;;;;;;;;;;;;;;;24.45;100.00;99239.69;5020572;28;20361;-90
2023/06/28 02:14:51;;;;;;;;;;;;;;;24.44;100.00;99241.59;5024387;28;20340;-92
2023/06/28 02:17:20;;;;;;;;;;;;;;;24.42;100.00;99240.16;5023335;28;19963;-88
2023/06/28 02:19:46;;;;;;;;;;;;;;;24.46;100.00;99241.31;5019532;28;19923;-90
2023/06/28 02:22:11;;;;;;;;;;;;;;;24.44;100.00;99243.47;5022709;28;20343;-92
2023/06/28 02:24:36;;;;;;;;;;;;;;;24.38;100.00;99256.03;5038440;28;19918;-88
2023/06/28 02:27:02;;;;;;;;;;;;;;;24.31;100.00;99257.22;5032531;28;19967;-92
2023/06/28 02:29:27;;;;;;;;;;;;;;;24.26;100.00;99257.94;5035659;28;19951;-89
2023/06/28 02:31:52;;;;;;;;;;;;;;;23.95;100.00;99261.81;5029625;28;19924;-94
2023/06/28 02:34:18;;;;;;;;;;;;;;;23.84;100.00;99254.56;5024564;28;19916;-94
2023/06/28 02:36:43;;;;;;;;;;;;;;;23.82;100.00;99261.22;5040148;28;19932;-92
2023/06/28 02:39:09;;;;;;;;;;;;;;;23.80;100.00;99258.78;5025668;28;19987;-91
2023/06/28 02:41:34;;;;;;;;;;;;;;;23.85;100.00;99255.41;5028075;28;19952;-90
2023/06/28 02:44:00;;;;;;;;;;;;;;;23.85;100.00;99248.13;5026986;28;20006;-91
2023/06/28 02:46:25;;;;;;;;;;;;;;;23.82;100.00;99243.19;5027580;28;20043;-90
2023/06/28 02:48:50;;;;;;;;;;;;;;;23.89;100.00;99246.59;5040072;28;19917;-90
2023/06/28 02:51:16;;;;;;;;;;;;;;;23.83;100.00;99244.84;5025937;28;19917;-91
2023/06/28 02:53:41;;;;;;;;;;;;;;;23.82;100.00;99240.50;5052178;28;20280;-92
2023/06/28 02:56:07;;;;;;;;;;;;;;;23.85;100.00;99250.00;5038585;28;19925;-92
2023/06/28 02:59:04;;;;;;;;;;;;;;;23.85;100.00;99250.81;5014268;28;19914;-90
2023/06/28 03:01:30;;;;;;;;;;;;;;;23.85;100.00;99250.81;5041885;28;19963;-90
2023/06/28 03:03:55;;;;;;;;;;;;;;;23.82;100.00;99259.38;5038969;28;19924;-91
2023/06/28 03:06:20;;;;;;;;;;;;;;;23.71;100.00;99260.19;5033262;28;19917;-89
2023/06/28 03:08:46;;;;;;;;;;;;;;;23.67;100.00;99262.56;5027838;28;19970;-87
2023/06/28 03:11:11;;;;;;;;;;;;;;;23.63;100.00;99266.75;5024477;28;20277;-86
2023/06/28 03:13:37;;;;;;;;;;;;;;;23.61;100.00;99276.13;5022605;28;20250;-90
2023/06/28 03:16:03;;;;;;;;;;;;;;;23.60;100.00;99288.78;5023792;28;19928;-90
2023/06/28 03:18:28;;;;;;;;;;;;;;;23.59;100.00;99281.75;5042348;28;20282;-90
2023/06/28 03:20:55;;;;;;;;;;;;;;;23.62;100.00;99293.94;5022065;28;19917;-89
2023/06/28 03:23:20;;;;;;;;;;;;;;;23.61;100.00;99301.19;5035404;28;20008;-88
2023/06/28 03:25:46;;;;;;;;;;;;;;;23.59;100.00;99307.84;5049758;28;19917;-88
2023/06/28 03:28:12;;;;;;;;;;;;;;;23.60;100.00;99312.19;5035576;28;19921;-88
2023/06/28 03:30:37;;;;;;;;;;;;;;;23.59;100.00;99321.31;5051569;28;20057;-88
2023/06/28 03:33:03;;;;;;;;;;;;;;;23.58;100.00;99330.44;5055166;28;20014;-90
2023/06/28 03:35:30;;;;;;;;;;;;;;;23.55;100.00;99329.06;5035773;28;19974;-89
2023/06/28 03:37:56;;;;;;;;;;;;;;;23.55;100.00;99334.44;5034975;28;19917;-89
2023/06/28 03:40:21;;;;;;;;;;;;;;;23.61;100.00;99335.38;5039179;28;19991;-90
2023/06/28 03:42:48;;;;;;;;;;;;;;;23.60;100.00;99339.13;5036283;28;19948;-88
2023/06/28 03:45:16;;;;;;;;;;;;;;;23.65;100.00;99344.63;5020601;28;19968;-88
2023/06/28 03:47:42;;;;;;;;;;;;;;;23.61;100.00;99340.78;5025930;28;19979;-88
2023/06/28 03:50:09;;;;;;;;;;;;;;;23.62;100.00;99337.81;5023459;28;19953;-94
2023/06/28 03:52:35;;;;;;;;;;;;;;;23.64;100.00;99341.13;5042073;28;19917;-92
2023/06/28 03:55:00;;;;;;;;;;;;;;;23.66;100.00;99335.50;5024921;28;19920;-92
2023/06/28 03:57:26;;;;;;;;;;;;;;;23.65;100.00;99336.56;5023260;28;19917;-92
2023/06/28 03:59:52;;;;;;;;;;;;;;;23.71;100.00;99335.63;5026334;28;19925;-91
2023/06/28 04:02:17;;;;;;;;;;;;;;;23.72;100.00;99342.66;5028355;28;19917;-93
2023/06/28 04:04:42;;;;;;;;;;;;;;;23.74;100.00;99340.53;5039163;28;19986;-91
2023/06/28 04:07:08;;;;;;;;;;;;;;;23.75;100.00;99342.19;5041169;28;20369;-93
2023/06/28 04:09:34;;;;;;;;;;;;;;;23.70;100.00;99344.75;5022589;28;19914;-90
2023/06/28 04:11:59;;;;;;;;;;;;;;;23.72;100.00;99341.84;5024534;28;19923;-90
2023/06/28 04:14:25;;;;;;;;;;;;;;;23.70;100.00;99333.97;5022323;28;19920;-90
2023/06/28 04:16:51;;;;;;;;;;;;;;;23.69;100.00;99337.72;5025414;28;20715;-89
2023/06/28 04:19:16;;;;;;;;;;;;;;;23.66;100.00;99332.81;5021839;28;20020;-89
2023/06/28 04:21:41;;;;;;;;;;;;;;;23.66;100.00;99335.50;5024469;28;19965;-89
2023/06/28 04:24:07;;;;;;;;;;;;;;;23.63;100.00;99327.88;5023082;28;19944;-88
2023/06/28 04:26:32;;;;;;;;;;;;;;;23.63;100.00;99325.19;5021433;28;19979;-88
2023/06/28 04:28:58;;;;;;;;;;;;;;;23.63;100.00;99334.09;5041822;22;19905;-74
2023/06/28 04:31:24;;;;;;;;;;;;;;;23.66;100.00;99328.25;5051217;28;20304;-74
2023/06/28 04:33:49;;;;;;;;;;;;;;;23.62;100.00;99331.66;5047462;28;19963;-73
2023/06/28 04:36:21;;;;;;;;;;;;;;;23.58;100.00;99338.53;5050491;28;19924;-75
2023/06/28 04:38:52;;;;;;;;;;;;;;;23.49;100.00;99348.00;5051882;28;19917;-74
2023/06/28 04:41:27;;;;;;;;;;;;;;;23.48;100.00;99346.38;5051249;28;19920;-75
2023/06/28 04:43:58;;;;;;;;;;;;;;;23.54;100.00;99356.22;5047841;28;19959;-75
2023/06/28 04:46:26;;;;;;;;;;;;;;;23.55;100.00;99361.38;5048053;28;19917;-75
2023/06/28 04:48:52;;;;;;;;;;;;;;;23.53;100.00;99370.72;5048095;28;20360;-75
2023/06/28 04:51:19;;;;;;;;;;;;;;;23.50;100.00;99369.31;5051704;28;19932;-75
2023/06/28 04:53:49;;;;;;;;;;;;;;;23.53;100.00;99374.25;5051928;28;20001;-75
2023/06/28 04:56:15;;;;;;;;;;;;;;;23.52;100.00;99372.59;5051432;28;19917;-74
2023/06/28 04:58:41;;;;;;;;;;;;;;;23.54;100.00;99375.88;5051789;28;19916;-75
2023/06/28 05:01:07;;;;;;;;;;;;;;;23.53;100.00;99376.13;5051068;28;19951;-75
2023/06/28 05:03:38;;;;;;;;;;;;;;;23.53;100.00;99378.81;5051656;28;19924;-75
2023/06/28 05:06:08;;;;;;;;;;;;;;;23.60;100.00;99382.22;5051757;28;19958;-74
2023/06/28 05:08:34;;;;;;;;;;;;;;;23.53;100.00;99386.88;5050349;28;19919;-74
2023/06/28 05:11:00;;;;;;;;;;;;;;;23.51;100.00;99391.66;5051184;28;19917;-75
2023/06/28 05:13:25;;;;;;;;;;;;;;;23.43;100.00;99397.38;5051584;28;19917;-75
2023/06/28 05:15:51;;;;;;;;;;;;;;;23.47;100.00;99393.19;5050862;28;19916;-75
2023/06/28 05:18:17;;;;;;;;;;;;;;;23.52;100.00;99390.63;5050829;28;19917;-75
2023/06/28 05:20:42;;;;;;;;;;;;;;;23.52;100.00;99396.00;5051523;28;19917;-76
2023/06/28 05:23:18;;;;;;;;;;;;;;;23.44;100.00;99388.25;5050846;28;20011;-81
2023/06/28 05:25:45;;;;;;;;;;;;;;;23.53;100.00;99384.19;5051330;28;19991;-77
2023/06/28 05:28:12;;;;;;;;;;;;;;;23.53;100.00;99394.97;5041220;28;19969;-75
2023/06/28 05:30:38;;;;;;;;;;;;;;;23.58;100.00;99398.59;5048791;28;19983;-74
2023/06/28 05:33:04;;;;;;;;;;;;;;;23.61;100.00;99391.94;5049280;28;19952;-74
2023/06/28 05:35:30;;;;;;;;;;;;;;;23.66;100.00;99392.06;5051478;28;19917;-75
2023/06/28 05:37:55;;;;;;;;;;;;;;;23.69;100.00;99391.59;5051370;28;20291;-74
2023/06/28 05:40:20;;;;;;;;;;;;;;;23.75;100.00;99393.38;5052523;28;19960;-81
2023/06/28 05:42:46;;;;;;;;;;;;;;;23.72;100.00;99388.47;5052529;28;19985;-81
2023/06/28 05:45:11;;;;;;;;;;;;;;;23.58;100.00;99395.91;5053580;28;19920;-79
2023/06/28 05:47:37;;;;;;;;;;;;;;;23.62;100.00;99390.91;5052842;28;19927;-79
2023/06/28 05:50:03;;;;;;;;;;;;;;;23.51;100.00;99386.28;5049170;28;20008;-76
2023/06/28 05:52:28;;;;;;;;;;;;;;;23.37;100.00;99387.53;5048131;28;20023;-79
2023/06/28 05:54:54;;;;;;;;;;;;;;;23.26;100.00;99387.25;5046915;28;19921;-79
2023/06/28 05:57:19;;;;;;;;;;;;;;;23.28;100.00;99395.91;5048105;28;19920;-78
2023/06/28 05:59:44;;;;;;;;;;;;;;;23.37;100.00;99399.13;5048330;28;20015;-79
2023/06/28 06:02:10;;;;;;;;;;;;;;;23.34;100.00;99396.03;5049503;28;19923;-80
2023/06/28 06:04:35;;;;;;;;;;;;;;;23.32;100.00;99390.09;5050645;28;19923;-82
2023/06/28 06:07:01;;;;;;;;;;;;;;;23.41;100.00;99399.47;5050329;28;19916;-81
2023/06/28 06:09:28;;;;;;;;;;;;;;;23.51;100.00;99388.97;5048977;28;19917;-81
2023/06/28 06:11:53;;;;;;;;;;;;;;;23.60;100.00;99391.13;5050992;28;19924;-82
2023/06/28 06:14:19;;;;;;;;;;;;;;;23.69;100.00;99380.81;5046716;28;20307;-82
2023/06/28 06:16:44;;;;;;;;;;;;;;;23.77;100.00;99383.19;5050676;28;19963;-81
2023/06/28 06:19:10;;;;;;;;;;;;;;;23.57;100.00;99388.88;5053461;28;19917;-81
2023/06/28 06:21:35;;;;;;;;;;;;;;;23.58;100.00;99395.09;5052272;28;20019;-80
2023/06/28 06:24:01;;;;;;;;;;;;;;;23.56;100.00;99397.22;5050772;28;19982;-83
2023/06/28 06:26:27;;;;;;;;;;;;;;;23.60;100.00;99398.38;5049287;28;19923;-81
2023/06/28 06:28:53;;;;;;;;;;;;;;;23.60;100.00;99401.06;5050112;28;20015;-81
2023/06/28 06:31:18;;;;;;;;;;;;;;;23.65;100.00;99398.50;5050146;28;19921;-82
2023/06/28 06:33:44;;;;;;;;;;;;;;;23.71;100.00;99408.38;5050379;28;19928;-82
2023/06/28 06:36:09;;;;;;;;;;;;;;;23.67;100.00;99412.59;5049861;28;19952;-82
2023/06/28 06:38:37;;;;;;;;;;;;;;;23.73;100.00;99417.03;5050573;28;19917;-82
2023/06/28 06:41:03;;;;;;;;;;;;;;;23.77;100.00;99414.69;5049979;28;19956;-82
2023/06/28 06:43:28;;;;;;;;;;;;;;;23.73;100.00;99414.34;5050385;28;19968;-82
2023/06/28 06:45:53;;;;;;;;;;;;;;;23.80;100.00;99419.63;5048810;28;19917;-82
2023/06/28 06:48:19;;;;;;;;;;;;;;;23.81;100.00;99427.47;5047045;28;19912;-82
2023/06/28 06:50:44;;;;;;;;;;;;;;;23.72;100.00;99428.88;5050224;28;19964;-81
2023/06/28 06:53:10;;;;;;;;;;;;;;;23.57;100.00;99434.66;5050317;28;19924;-80
2023/06/28 06:55:35;;;;;;;;;;;;;;;23.67;100.00;99442.22;5050579;28;19919;-81
2023/06/28 06:58:01;;;;;;;;;;;;;;;23.70;100.00;99436.34;5051278;28;19921;-81
2023/06/28 07:00:27;;;;;;;;;;;;;;;23.74;100.00;99440.22;5052109;28;19917;-81
2023/06/28 07:02:52;;;;;;;;;;;;;;;23.62;100.00;99440.19;5050489;28;19923;-81
2023/06/28 07:05:18;;;;;;;;;;;;;;;23.72;100.00;99436.13;5051377;28;19998;-81
2023/06/28 07:07:43;;;;;;;;;;;;;;;23.75;100.00;99439.16;5050594;28;19913;-81
2023/06/28 07:10:09;;;;;;;;;;;;;;;23.80;100.00;99442.00;5051233;28;20010;-81
2023/06/28 07:12:34;;;;;;;;;;;;;;;23.87;100.00;99442.72;5034125;28;19963;-82
2023/06/28 07:15:00;;;;;;;;;;;;;;;23.94;100.00;99443.44;5053417;28;19912;-81
2023/06/28 07:17:25;;;;;;;;;;;;;;;24.00;100.00;99453.28;5052092;28;19956;-82
2023/06/28 07:19:51;;;;;;;;;;;;;;;23.94;100.00;99459.59;5053605;28;19932;-81
2023/06/28 07:22:16;;;;;;;;;;;;;;;24.01;100.00;99460.31;5053137;28;19917;-81
2023/06/28 07:24:42;;;;;;;;;;;;;;;24.07;100.00;99455.88;5053854;28;19970;-81
2023/06/28 07:27:07;;;;;;;;;;;;;;;24.15;100.00;99462.81;5052997;28;19917;-82
2023/06/28 07:29:33;;;;;;;;;;;;;;;24.24;100.00;99464.13;5053088;28;19920;-81
2023/06/28 07:31:58;;;;;;;;;;;;;;;24.24;100.00;99459.56;5052914;28;19955;-82
2023/06/28 07:34:24;;;;;;;;;;;;;;;24.30;100.00;99463.19;5053374;28;20016;-82
2023/06/28 07:36:50;;;;;;;;;;;;;;;24.39;100.00;99459.09;5053067;28;19962;-83
2023/06/28 07:39:15;;;;;;;;;;;;;;;24.45;100.00;99460.84;5051469;28;19924;-81
2023/06/28 07:41:40;;;;;;;;;;;;;;;24.47;100.00;99469.53;5051891;28;19939;-81
2023/06/28 07:44:06;;;;;;;;;;;;;;;24.44;100.00;99459.22;5052042;28;19917;-81
2023/06/28 07:46:31;;;;;;;;;;;;;;;24.31;100.00;99470.25;5060268;28;19917;-81
2023/06/28 07:48:59;;;;;;;;;;;;;;;24.44;100.00;99475.41;5051243;28;19924;-81
2023/06/28 07:51:25;;;;;;;;;;;;;;;24.47;100.00;99470.34;5051387;28;20336;-81
2023/06/28 07:53:51;;;;;;;;;;;;;;;24.45;100.00;99477.03;5053017;28;19923;-81
2023/06/28 07:56:16;;;;;;;;;;;;;;;24.43;100.00;99476.47;5059932;28;19917;-80
2023/06/28 07:58:42;;;;;;;;;;;;;;;24.44;100.00;99475.41;5053078;28;20361;-82
2023/06/28 08:01:07;;;;;;;;;;;;;;;24.53;100.00;99476.69;5052812;28;19963;-81
2023/06/28 08:03:33;;;;;;;;;;;;;;;24.52;100.00;99472.34;5052805;28;19927;-83
2023/06/28 08:05:58;;;;;;;;;;;;;;;24.57;100.00;99469.75;5051024;28;19921;-82
2023/06/28 08:08:23;;;;;;;;;;;;;;;24.69;100.00;99469.75;5053262;28;20795;-82
2023/06/28 08:10:49;;;;;;;;;;;;;;;24.80;100.00;99477.81;5048854;28;19923;-81
2023/06/28 08:13:14;;;;;;;;;;;;;;;24.85;100.00;99477.97;5053063;28;19939;-80
2023/06/28 08:15:40;;;;;;;;;;;;;;;24.81;100.00;99471.38;5053381;28;19924;-81
2023/06/28 08:18:08;;;;;;;;;;;;;;;24.75;100.00;99477.72;5053216;28;19916;-81
2023/06/28 08:20:33;;;;;;;;;;;;;;;24.72;100.00;99472.81;5052822;28;19956;-82
2023/06/28 08:22:59;;;;;;;;;;;;;;;24.70;100.00;99474.09;5052045;28;19923;-82
2023/06/28 08:25:24;;;;;;;;;;;;;;;24.76;100.00;99476.66;5053096;28;19969;-81
2023/06/28 08:27:50;;;;;;;;;;;;;;;24.88;100.00;99477.50;5052345;28;20457;-81
2023/06/28 08:30:15;;;;;;;;;;;;;;;24.88;100.00;99482.91;5051754;28;19924;-80
2023/06/28 08:32:41;;;;;;;;;;;;;;;24.83;100.00;99485.47;5051639;28;20003;-82
2023/06/28 08:35:08;;;;;;;;;;;;;;;24.73;100.00;99487.94;5052191;28;20304;-81
2023/06/28 08:37:34;;;;;;;;;;;;;;;24.80;100.00;99485.91;5052313;28;20004;-81
2023/06/28 08:40:01;;;;;;;;;;;;;;;24.91;100.00;99486.19;5052399;28;19995;-81
2023/06/28 08:42:27;;;;;;;;;;;;;;;24.94;100.00;99486.53;5051812;28;19991;-81
2023/06/28 08:44:55;;;;;;;;;;;;;;;25.06;100.00;99483.81;5054290;28;19916;-81
2023/06/28 08:47:21;;;;;;;;;;;;;;;25.12;100.00;99482.84;5048967;28;19970;-81
2023/06/28 08:49:47;;;;;;;;;;;;;;;25.05;100.00;99495.66;5052964;28;19917;-80
2023/06/28 08:52:14;;;;;;;;;;;;;;;25.08;100.00;99487.91;5055430;28;19956;-81
2023/06/28 08:54:41;;;;;;;;;;;;;;;25.09;100.00;99488.75;5059535;28;19920;-81
2023/06/28 08:57:07;;;;;;;;;;;;;;;25.13;100.00;99485.31;5058713;28;19924;-81
2023/06/28 08:59:32;;;;;;;;;;;;;;;25.18;100.00;99481.91;5061035;28;19920;-82
2023/06/28 09:01:59;;;;;;;;;;;;;;;25.13;100.00;99479.09;5061122;28;19921;-82
2023/06/28 09:04:29;;;;;;;;;;;;;;;25.12;100.00;99472.06;5061204;28;19923;-81
2023/06/28 09:06:55;;;;;;;;;;;;;;;25.22;100.00;99480.34;5055266;28;19916;-81
2023/06/28 09:09:21;;;;;;;;;;;;;;;25.34;100.00;99481.13;5053780;28;19916;-82
2023/06/28 09:11:46;;;;;;;;;;;;;;;25.48;100.00;99482.50;5055999;28;19916;-80
2023/06/28 09:14:12;;;;;;;;;;;;;;;25.42;100.00;99488.88;5056621;28;19920;-81
2023/06/28 09:16:37;;;;;;;;;;;;;;;25.31;100.00;99481.63;5058003;28;19948;-81
2023/06/28 09:19:03;;;;;;;;;;;;;;;25.39;100.00;99485.84;5058583;28;19978;-82
2023/06/28 09:21:29;;;;;;;;;;;;;;;25.40;100.00;99480.19;5056107;28;19974;-81
2023/06/28 09:23:55;;;;;;;;;;;;;;;25.23;100.00;99477.41;5055659;28;20376;-82
2023/06/28 09:26:21;;;;;;;;;;;;;;;25.13;100.00;99479.09;5057516;28;19947;-81
2023/06/28 09:28:46;;;;;;;;;;;;;;;25.26;100.00;99479.66;5059967;28;20292;-81
2023/06/28 09:31:17;;;;;;;;;;;;;;;25.35;100.00;99471.97;5057326;28;19916;-82
2023/06/28 09:33:43;;;;;;;;;;;;;;;25.26;100.00;99470.72;5058256;28;19923;-82
2023/06/28 09:36:09;;;;;;;;;;;;;;;25.31;100.00;99470.00;5057602;28;19921;-83
2023/06/28 09:38:41;;;;;;;;;;;;;;;25.25;100.00;99461.00;5057225;28;19916;-81
2023/06/28 09:41:07;;;;;;;;;;;;;;;25.33;100.00;99467.91;5058029;28;20003;-82
2023/06/28 09:43:33;;;;;;;;;;;;;;;25.46;100.00;99463.00;5058949;28;19971;-82
2023/06/28 09:46:16;;;;;;;;;;;;;;;25.62;100.00;99456.84;5059688;28;19974;-81
2023/06/28 09:48:47;;;;;;;;;;;;;;;25.73;100.00;99462.47;5060147;28;19917;-81
2023/06/28 09:51:16;;;;;;;;;;;;;;;25.72;100.00;99466.22;5059839;28;20343;-82
2023/06/28 09:53:58;;;;;;;;;;;;;;;25.80;100.00;99458.50;5060196;28;20342;-82
2023/06/28 09:56:34;;;;;;;;;;;;;;;25.87;100.00;99455.66;5054593;28;19976;-82
2023/06/28 09:59:06;;;;;;;;;;;;;;;25.99;100.00;99459.94;5059189;28;19917;-82
2023/06/28 10:01:33;;;;;;;;;;;;;;;26.07;100.00;99458.72;5063483;28;19916;-81
2023/06/28 10:03:59;;;;;;;;;;;;;;;26.09;100.00;99462.00;5061419;28;19948;-80
2023/06/28 10:06:25;;;;;;;;;;;;;;;26.06;100.00;99468.72;5059110;28;19917;-78
2023/06/28 10:08:51;;;;;;;;;;;;;;;26.05;100.00;99466.25;5056087;28;19920;-78
2023/06/28 10:11:17;;;;;;;;;;;;;;;26.04;100.00;99470.00;5053978;28;19920;-76
2023/06/28 10:13:46;;;;;;;;;;;;;;;26.05;100.00;99471.66;5046969;28;19927;-77
2023/06/28 10:16:17;;;;;;;;;;;;;;;26.12;100.00;99466.91;5048717;28;20937;-79
2023/06/28 10:18:43;;;;;;;;;;;;;;;26.21;100.00;99462.75;5049642;28;20296;-81
2023/06/28 10:21:08;;;;;;;;;;;;;;;26.30;100.00;99461.28;5051552;28;20464;-76
2023/06/28 10:23:35;;;;;;;;;;;;;;;26.42;100.00;99464.72;5050541;28;19917;-77
2023/06/28 10:26:04;;;;;;;;;;;;;;;26.53;100.00;99462.16;5050858;28;19916;-78
2023/06/28 10:28:34;;;;;;;;;;;;;;;26.54;100.00;99452.97;5049867;28;19917;-77
2023/06/28 10:31:01;;;;;;;;;;;;;;;26.61;100.00;99461.75;5050069;28;19970;-78
2023/06/28 10:33:36;;;;;;;;;;;;;;;26.66;100.00;99467.22;5049600;28;19917;-79
2023/06/28 10:36:02;;;;;;;;;;;;;;;26.68;100.00;99462.38;5051123;28;20349;-79
2023/06/28 10:38:31;;;;;;;;;;;;;;;26.74;100.00;99459.47;5050573;28;19970;-79
2023/06/28 10:40:57;;;;;;;;;;;;;;;26.80;100.00;99460.38;5048378;28;20299;-79
2023/06/28 10:43:23;;;;;;;;;;;;;;;26.88;100.00;99465.38;5048797;28;20032;-78
2023/06/28 10:45:49;;;;;;;;;;;;;;;26.99;100.00;99460.91;5051377;28;19921;-79
2023/06/28 10:48:18;;;;;;;;;;;;;;;27.09;100.00;99461.06;5055233;28;19943;-78
2023/06/28 10:50:44;;;;;;;;;;;;;;;27.12;100.00;99466.78;5053212;28;20265;-78
2023/06/28 10:53:38;;;;;;;;;;;;;;;27.18;100.00;99460.34;5053122;28;20023;-78
2023/06/28 10:56:04;;;;;;;;;;;;;;;27.21;100.00;99464.44;5043716;28;20292;-79
2023/06/28 10:58:35;;;;;;;;;;;;;;;27.21;100.00;99469.88;5054037;28;19921;-80
2023/06/28 11:01:00;;;;;;;;;;;;;;;27.17;100.00;99472.25;5054593;28;20291;-79
2023/06/28 11:03:36;;;;;;;;;;;;;;;27.06;100.00;99467.78;5054322;28;19924;-78
2023/06/28 11:06:02;;;;;;;;;;;;;;;27.14;100.00;99464.66;5052563;28;20256;-78
2023/06/28 11:08:40;;;;;;;;;;;;;;;27.25;100.00;99471.00;5053945;28;19917;-79
2023/06/28 11:11:07;;;;;;;;;;;;;;;27.33;100.00;99467.84;5053403;28;20042;-76
2023/06/28 11:13:42;;;;;;;;;;;;;;;27.40;100.00;99467.63;5052055;28;19917;-78
2023/06/28 11:16:24;;;;;;;;;;;;;;;27.43;100.00;99467.13;5053753;28;20287;-79
2023/06/28 11:18:50;;;;;;;;;;;;;;;27.47;100.00;99469.06;5053137;28;19917;-79
2023/06/28 11:21:25;;;;;;;;;;;;;;;27.53;100.00;99461.84;5052687;28;19969;-77
2023/06/28 11:23:55;;;;;;;;;;;;;;;27.57;100.00;99462.97;5051274;28;19923;-78
2023/06/28 11:26:34;;;;;;;;;;;;;;;27.55;100.00;99465.13;5052971;28;20257;-78
2023/06/28 11:29:01;;;;;;;;;;;;;;;27.48;100.00;99464.47;5053385;28;20265;-78
2023/06/28 11:31:35;;;;;;;;;;;;;;;27.44;100.00;99457.94;5053849;28;19923;-78
2023/06/28 11:34:01;;;;;;;;;;;;;;;27.45;99.58;99454.16;5052254;28;20265;-78
2023/06/28 11:36:26;;;;;;;;;;;;;;;27.49;100.00;99457.97;5053761;28;19946;-76
2023/06/28 11:38:52;;;;;;;;;;;;;;;27.57;100.00;99447.53;5038038;28;19924;-78
2023/06/28 11:41:17;;;;;;;;;;;;;;;27.69;99.50;99450.06;5053308;28;19956;-78
2023/06/28 11:43:43;;;;;;;;;;;;;;;27.75;99.40;99449.03;5052557;28;19916;-78
2023/06/28 11:46:09;;;;;;;;;;;;;;;27.83;99.40;99437.75;5053237;28;20279;-77
2023/06/28 11:48:35;;;;;;;;;;;;;;;27.88;99.95;99440.50;5060705;28;19923;-78
2023/06/28 11:51:01;;;;;;;;;;;;;;;27.98;99.58;99443.28;5053842;28;19923;-77
2023/06/28 11:53:28;;;;;;;;;;;;;;;28.09;99.11;99442.31;5052818;28;20295;-78
2023/06/28 11:55:54;;;;;;;;;;;;;;;28.11;97.78;99437.44;5051343;28;19970;-78
2023/06/28 11:58:32;;;;;;;;;;;;;;;28.08;95.24;99432.53;5050800;28;19917;-78
2023/06/28 12:00:59;;;;;;;;;;;;;;;28.10;95.88;99427.66;5052089;28;19916;-78
2023/06/28 12:03:33;;;;;;;;;;;;;;;27.83;97.10;99426.91;5052790;28;19939;-78
2023/06/28 12:06:00;;;;;;;;;;;;;;;27.97;96.94;99424.56;5051301;28;19947;-77
2023/06/28 12:08:25;;;;;;;;;;;;;;;28.13;95.44;99422.78;5052153;28;19916;-76
2023/06/28 12:10:50;;;;;;;;;;;;;;;28.30;93.72;99415.34;5052195;28;19923;-75
2023/06/28 12:13:22;;;;;;;;;;;;;;;28.38;92.63;99420.28;5052013;28;19954;-75
2023/06/28 12:15:48;;;;;;;;;;;;;;;28.59;91.74;99418.50;5052092;28;19924;-76
2023/06/28 12:18:14;;;;;;;;;;;;;;;28.62;89.45;99415.28;5051925;28;20429;-76
2023/06/28 12:20:39;;;;;;;;;;;;;;;28.69;89.81;99405.78;5052393;28;19921;-77
2023/06/28 12:23:10;;;;;;;;;;;;;;;28.83;88.86;99398.84;5051518;28;19918;-75
2023/06/28 12:25:40;;;;;;;;;;;;;;;28.98;87.67;99402.69;5052106;28;19960;-76
2023/06/28 12:28:05;;;;;;;;;;;;;;;29.13;88.05;99402.75;5051927;28;19925;-76
2023/06/28 12:30:31;;;;;;;;;;;;;;;29.12;85.65;99398.38;5051090;28;19940;-78
2023/06/28 12:32:57;;;;;;;;;;;;;;;29.18;86.01;99403.56;5050961;28;19948;-78
2023/06/28 12:35:23;;;;;;;;;;;;;;;29.38;84.66;99391.97;5051826;28;19917;-79